Time;durP1;ratioP1;P1;durP2;ratioP2;P2;SDS_P1;SDS_P2;PMS_P1;PMS_P2;Temp;Humidity;BMP_temperature;BMP_pressure;BME280_temperature;BME280_humidity;BME280_pressure;Samples;Min_cycle;Max_cycle;Signal;HPM_P1;HPM_P2
2021/09/29 00:01:55;;;;;;;7.93;6.03;;;15.40;99.90;;;;;;4995291;28;20212;-71
2021/09/29 00:04:22;;;;;;;7.70;5.72;;;15.40;99.90;;;;;;4995427;28;20639;-70
2021/09/29 00:06:48;;;;;;;6.93;5.15;;;15.40;99.90;;;;;;4995276;28;20208;-70
2021/09/29 00:09:17;;;;;;;5.72;4.88;;;15.50;99.90;;;;;;4995226;28;20663;-71
2021/09/29 00:11:43;;;;;;;6.45;4.70;;;15.50;99.90;;;;;;4995081;28;20298;-69
2021/09/29 00:14:11;;;;;;;5.72;4.60;;;15.50;99.90;;;;;;4995405;28;20213;-71
2021/09/29 00:16:37;;;;;;;6.40;4.95;;;15.50;99.90;;;;;;4994913;28;20686;-71
2021/09/29 00:19:04;;;;;;;6.97;5.10;;;15.50;99.90;;;;;;4995250;28;20220;-71
2021/09/29 00:21:31;;;;;;;6.03;4.78;;;15.50;99.90;;;;;;4994931;28;20713;-70
2021/09/29 00:23:58;;;;;;;5.00;4.45;;;15.50;99.90;;;;;;4995070;28;20644;-70
2021/09/29 00:26:26;;;;;;;7.07;5.88;;;15.50;99.90;;;;;;4994985;28;20312;-72
2021/09/29 00:28:53;;;;;;;6.72;5.35;;;15.40;99.90;;;;;;4995101;28;20261;-71
2021/09/29 00:31:26;;;;;;;8.82;5.70;;;15.40;99.90;;;;;;4994668;28;20232;-71
2021/09/29 00:33:59;;;;;;;8.32;6.13;;;15.30;99.90;;;;;;4995021;28;20633;-71
2021/09/29 00:36:26;;;;;;;7.85;5.88;;;15.20;99.90;;;;;;4994498;28;20233;-72
2021/09/29 00:38:53;;;;;;;7.95;5.68;;;15.10;99.90;;;;;;4994186;28;20244;-71
2021/09/29 00:41:20;;;;;;;8.45;6.40;;;15.20;99.90;;;;;;4994882;28;20299;-71
2021/09/29 00:43:49;;;;;;;7.85;5.55;;;15.10;99.90;;;;;;4994765;28;20215;-70
2021/09/29 00:46:16;;;;;;;7.68;5.40;;;15.20;99.90;;;;;;4994485;28;20327;-72
2021/09/29 00:48:43;;;;;;;6.85;5.88;;;15.30;99.90;;;;;;4994445;28;20218;-71
2021/09/29 00:51:10;;;;;;;7.63;5.90;;;15.30;99.90;;;;;;4994280;28;20232;-72
2021/09/29 00:53:38;;;;;;;7.95;5.38;;;15.40;99.90;;;;;;4994855;28;20204;-72
2021/09/29 00:56:05;;;;;;;6.72;5.05;;;15.40;99.90;;;;;;4994552;28;20658;-72
2021/09/29 00:58:32;;;;;;;8.40;5.97;;;15.30;99.90;;;;;;4994488;28;20699;-70
2021/09/29 01:01:01;;;;;;;6.10;4.80;;;15.30;99.90;;;;;;4994517;28;20214;-70
2021/09/29 01:03:28;;;;;;;7.40;5.57;;;15.20;99.90;;;;;;4994344;28;20296;-71
2021/09/29 01:05:59;;;;;;;8.68;6.13;;;15.20;99.90;;;;;;4993895;28;20231;-72
2021/09/29 01:08:33;;;;;;;8.85;5.35;;;15.20;99.90;;;;;;4994337;28;20208;-72
2021/09/29 01:11:06;;;;;;;7.05;5.57;;;15.20;99.90;;;;;;4994194;28;20231;-71
2021/09/29 01:13:40;;;;;;;7.30;5.28;;;15.20;99.90;;;;;;4994127;28;20211;-71
2021/09/29 01:16:11;;;;;;;8.77;6.40;;;15.30;99.90;;;;;;4993817;28;20227;-70
2021/09/29 01:18:43;;;;;;;8.52;6.30;;;15.20;99.90;;;;;;4994201;28;20212;-71
2021/09/29 01:21:12;;;;;;;8.63;5.43;;;15.20;99.90;;;;;;4994221;28;20289;-70
2021/09/29 01:23:52;;;;;;;9.50;5.70;;;15.20;99.90;;;;;;4993989;28;20210;-70
2021/09/29 01:26:22;;;;;;;7.68;5.20;;;15.20;99.90;;;;;;4993564;28;20239;-71
2021/09/29 01:28:53;;;;;;;6.22;5.05;;;15.20;99.90;;;;;;4993621;28;20745;-71
2021/09/29 01:31:21;;;;;;;6.78;5.43;;;15.20;99.90;;;;;;4993905;28;20228;-73
2021/09/29 01:33:51;;;;;;;7.38;5.22;;;15.10;99.90;;;;;;4993663;28;20570;-73
2021/09/29 01:36:19;;;;;;;8.88;5.60;;;15.00;99.90;;;;;;4993433;28;20318;-72
2021/09/29 01:38:49;;;;;;;8.15;5.30;;;14.90;99.90;;;;;;4993522;28;20299;-73
2021/09/29 01:41:17;;;;;;;6.05;5.45;;;14.90;99.90;;;;;;4993242;28;20555;-75
2021/09/29 01:43:45;;;;;;;5.55;4.40;;;14.90;99.90;;;;;;4994560;28;20212;-73
2021/09/29 01:46:12;;;;;;;7.35;5.43;;;14.80;99.90;;;;;;4994372;28;20319;-74
2021/09/29 01:48:47;;;;;;;6.57;4.68;;;14.70;99.90;;;;;;4994564;28;20206;-73
2021/09/29 01:51:15;;;;;;;6.40;5.50;;;14.70;99.90;;;;;;4994345;28;20230;-73
2021/09/29 01:53:43;;;;;;;7.22;5.03;;;14.80;99.90;;;;;;4994461;28;20218;-73
2021/09/29 01:56:10;;;;;;;7.43;4.78;;;14.70;99.90;;;;;;4994512;28;20237;-73
2021/09/29 01:58:37;;;;;;;6.22;4.80;;;14.80;99.90;;;;;;4994523;28;20215;-73
2021/09/29 02:01:05;;;;;;;5.30;4.68;;;14.80;99.90;;;;;;4994305;28;20199;-74
2021/09/29 02:03:32;;;;;;;6.07;5.03;;;14.80;99.90;;;;;;4994325;28;20206;-73
2021/09/29 02:05:59;;;;;;;6.40;4.93;;;14.80;99.90;;;;;;4994330;28;20319;-73
2021/09/29 02:08:26;;;;;;;6.25;4.45;;;14.80;99.90;;;;;;4994067;28;20725;-74
2021/09/29 02:10:53;;;;;;;6.57;4.55;;;14.70;99.90;;;;;;4994231;28;20234;-73
2021/09/29 02:13:20;;;;;;;8.32;4.30;;;14.80;99.90;;;;;;4994163;28;20218;-73
2021/09/29 02:15:46;;;;;;;6.85;5.03;;;14.80;99.90;;;;;;4993952;28;20320;-73
2021/09/29 02:18:15;;;;;;;8.60;5.60;;;14.80;99.90;;;;;;4994243;28;20212;-73
2021/09/29 02:20:42;;;;;;;7.68;5.40;;;14.80;99.90;;;;;;4994230;28;20688;-73
2021/09/29 02:23:09;;;;;;;9.32;4.78;;;14.70;99.90;;;;;;4993812;28;20297;-73
2021/09/29 02:25:36;;;;;;;6.97;4.80;;;14.70;99.90;;;;;;4994138;28;20228;-73
2021/09/29 02:28:03;;;;;;;7.82;5.93;;;14.70;99.90;;;;;;4994178;28;20635;-73
2021/09/29 02:30:30;;;;;;;7.93;5.35;;;14.60;99.90;;;;;;4994052;28;20227;-73
2021/09/29 02:32:57;;;;;;;7.53;5.30;;;14.60;99.90;;;;;;4993747;28;20647;-73
2021/09/29 02:35:25;;;;;;;7.40;5.45;;;14.50;99.90;;;;;;4993859;28;20316;-73
2021/09/29 02:37:52;;;;;;;5.85;4.75;;;14.60;99.90;;;;;;4993809;28;20298;-73
2021/09/29 02:40:19;;;;;;;6.57;4.55;;;14.70;99.90;;;;;;4994075;28;20240;-73
2021/09/29 02:42:45;;;;;;;6.45;5.20;;;14.60;99.90;;;;;;4993857;28;20593;-73
2021/09/29 02:45:14;;;;;;;7.45;5.07;;;14.70;99.90;;;;;;4994004;28;20227;-73
2021/09/29 02:47:41;;;;;;;6.95;4.90;;;14.70;99.90;;;;;;4993781;28;20695;-73
2021/09/29 02:50:08;;;;;;;5.45;4.82;;;14.70;99.90;;;;;;4993852;28;20589;-73
2021/09/29 02:52:37;;;;;;;5.10;4.60;;;14.80;99.90;;;;;;4993766;28;20405;-73
2021/09/29 02:55:04;;;;;;;7.07;4.80;;;14.90;99.90;;;;;;4993823;28;20232;-73
2021/09/29 02:57:31;;;;;;;6.35;4.95;;;15.00;99.90;;;;;;4994442;28;20208;-73
2021/09/29 02:59:58;;;;;;;5.95;4.93;;;15.10;99.90;;;;;;4993804;28;20204;-73
2021/09/29 03:02:25;;;;;;;5.35;4.50;;;15.10;99.90;;;;;;4996266;28;20294;-73
2021/09/29 03:04:52;;;;;;;7.70;5.35;;;15.10;99.90;;;;;;4997356;28;20270;-73
2021/09/29 03:07:18;;;;;;;5.75;5.00;;;15.20;99.90;;;;;;4997620;28;20295;-73
2021/09/29 03:09:47;;;;;;;6.20;5.00;;;15.20;99.90;;;;;;4997586;28;20233;-73
2021/09/29 03:12:13;;;;;;;4.35;3.65;;;15.20;99.90;;;;;;4997188;28;20237;-73
2021/09/29 03:14:40;;;;;;;5.88;4.63;;;15.20;99.90;;;;;;4997373;28;20668;-73
2021/09/29 03:17:07;;;;;;;5.78;4.15;;;15.20;99.90;;;;;;4997462;28;20306;-73
2021/09/29 03:19:34;;;;;;;7.00;4.40;;;15.20;99.90;;;;;;4997379;28;20210;-73
2021/09/29 03:22:02;;;;;;;8.48;4.43;;;15.20;99.90;;;;;;4997270;28;20208;-73
2021/09/29 03:24:29;;;;;;;7.82;4.80;;;15.10;99.90;;;;;;4997217;28;20337;-73
2021/09/29 03:26:57;;;;;;;6.60;5.15;;;15.10;99.90;;;;;;4997330;28;20210;-73
2021/09/29 03:29:24;;;;;;;6.75;4.15;;;15.10;99.90;;;;;;4997144;28;20301;-73
2021/09/29 03:31:51;;;;;;;4.75;4.07;;;15.10;99.90;;;;;;4996684;28;20231;-73
2021/09/29 03:34:18;;;;;;;5.32;4.10;;;15.10;99.90;;;;;;4997036;28;20294;-74
2021/09/29 03:36:45;;;;;;;5.50;4.00;;;15.10;99.90;;;;;;4996872;28;20298;-73
2021/09/29 03:39:12;;;;;;;7.18;4.50;;;15.10;99.90;;;;;;4995910;28;20203;-73
2021/09/29 03:41:39;;;;;;;6.25;4.65;;;15.10;99.90;;;;;;4996767;28;20724;-73
2021/09/29 03:44:07;;;;;;;5.90;4.35;;;15.20;99.90;;;;;;4996822;28;20207;-73
2021/09/29 03:46:34;;;;;;;7.13;4.93;;;15.10;99.90;;;;;;4997041;28;20295;-73
2021/09/29 03:49:02;;;;;;;5.65;4.05;;;15.20;99.90;;;;;;4996720;28;20223;-73
2021/09/29 03:51:29;;;;;;;5.40;4.75;;;15.30;99.90;;;;;;4996582;28;20232;-73
2021/09/29 03:53:56;;;;;;;4.85;4.25;;;15.20;99.90;;;;;;4996746;28;20212;-73
2021/09/29 03:56:23;;;;;;;6.22;4.95;;;15.30;99.90;;;;;;4996383;28;20748;-73
2021/09/29 03:58:49;;;;;;;7.07;4.05;;;15.20;99.90;;;;;;4996652;28;20216;-73
2021/09/29 04:01:19;;;;;;;5.65;4.15;;;15.30;99.90;;;;;;4996456;28;20290;-72
2021/09/29 04:03:46;;;;;;;4.13;3.70;;;15.30;99.90;;;;;;4996582;28;20241;-73
2021/09/29 04:06:13;;;;;;;5.55;3.97;;;15.30;99.90;;;;;;4996617;28;20232;-72
2021/09/29 04:08:40;;;;;;;10.00;6.57;;;15.20;99.90;;;;;;4996428;28;20208;-73
2021/09/29 04:11:09;;;;;;;7.65;4.93;;;15.30;99.90;;;;;;4996207;28;20580;-73
2021/09/29 04:13:36;;;;;;;4.55;3.97;;;15.30;99.90;;;;;;4995141;28;20208;-73
2021/09/29 04:16:03;;;;;;;4.75;3.90;;;15.30;99.90;;;;;;4996360;28;20238;-73
2021/09/29 04:18:31;;;;;;;8.70;5.72;;;15.40;99.90;;;;;;4996415;28;20208;-73
2021/09/29 04:20:58;;;;;;;6.43;4.80;;;15.30;99.90;;;;;;4996677;28;20200;-72
2021/09/29 04:23:25;;;;;;;4.93;3.60;;;15.30;99.90;;;;;;4996245;28;20638;-72
2021/09/29 04:25:52;;;;;;;5.63;4.15;;;15.40;99.90;;;;;;4996096;28;20318;-72
2021/09/29 04:28:20;;;;;;;5.15;4.50;;;15.40;99.90;;;;;;4996123;28;20212;-73
2021/09/29 04:30:47;;;;;;;4.32;3.88;;;15.40;99.90;;;;;;4995844;28;20230;-73
2021/09/29 04:33:14;;;;;;;4.35;3.53;;;15.30;99.90;;;;;;4995744;28;20588;-73
2021/09/29 04:35:43;;;;;;;4.45;3.40;;;15.30;99.90;;;;;;4995723;28;20224;-73
2021/09/29 04:38:09;;;;;;;5.40;3.78;;;15.30;99.90;;;;;;4995970;28;20217;-73
2021/09/29 04:40:37;;;;;;;4.20;3.67;;;15.30;99.90;;;;;;4995616;28;20205;-73
2021/09/29 04:43:03;;;;;;;6.40;3.35;;;15.30;99.90;;;;;;4995713;28;20338;-73
2021/09/29 04:45:30;;;;;;;4.20;3.45;;;15.30;99.90;;;;;;4995861;28;20233;-73
2021/09/29 04:47:57;;;;;;;3.55;3.25;;;15.20;99.90;;;;;;4995622;28;20301;-73
2021/09/29 04:50:24;;;;;;;5.13;3.63;;;15.20;99.90;;;;;;4995684;28;20204;-73
2021/09/29 04:52:52;;;;;;;4.63;3.13;;;15.20;99.90;;;;;;4995484;28;20299;-73
2021/09/29 04:55:19;;;;;;;9.23;5.10;;;15.30;99.90;;;;;;4995619;28;20255;-73
2021/09/29 04:57:46;;;;;;;5.63;4.32;;;15.20;99.90;;;;;;4995733;28;20299;-73
2021/09/29 05:00:14;;;;;;;4.88;3.33;;;15.20;99.90;;;;;;4995635;28;20207;-73
2021/09/29 05:02:46;;;;;;;3.72;2.95;;;15.20;99.90;;;;;;4995388;28;20296;-73
2021/09/29 05:05:13;;;;;;;4.40;2.72;;;15.20;99.90;;;;;;4995238;28;20231;-73
2021/09/29 05:07:41;;;;;;;3.40;3.10;;;15.20;99.90;;;;;;4995452;28;20214;-73
2021/09/29 05:10:17;;;;;;;3.42;2.97;;;15.20;99.90;;;;;;4995383;28;20204;-72
2021/09/29 05:12:48;;;;;;;3.30;2.80;;;15.20;99.90;;;;;;4995097;28;20585;-73
2021/09/29 05:15:15;;;;;;;4.18;3.03;;;15.10;99.90;;;;;;4995260;28;20236;-73
2021/09/29 05:17:42;;;;;;;4.35;2.90;;;15.10;99.90;;;;;;4995252;28;20209;-72
2021/09/29 05:20:10;;;;;;;3.90;2.95;;;15.10;99.90;;;;;;4994905;28;20211;-73
2021/09/29 05:22:36;;;;;;;5.20;2.95;;;15.10;99.90;;;;;;4995014;28;20295;-73
2021/09/29 05:25:04;;;;;;;4.35;3.10;;;15.10;99.90;;;;;;4994552;28;20662;-73
2021/09/29 05:27:32;;;;;;;10.10;6.85;;;15.10;99.90;;;;;;4995197;28;20573;-73
2021/09/29 05:29:59;;;;;;;3.35;3.05;;;15.10;99.90;;;;;;4995074;28;20275;-72
2021/09/29 05:32:26;;;;;;;3.03;2.72;;;15.20;99.90;;;;;;4994508;28;20231;-73
2021/09/29 05:34:53;;;;;;;9.30;3.15;;;15.20;99.90;;;;;;4994606;28;20255;-73
2021/09/29 05:37:20;;;;;;;3.97;2.58;;;15.20;99.90;;;;;;4994666;28;20664;-73
2021/09/29 05:39:47;;;;;;;4.55;3.10;;;15.20;99.90;;;;;;4994838;28;20204;-73
2021/09/29 05:42:14;;;;;;;5.75;4.70;;;15.10;99.90;;;;;;4994489;28;20657;-73
2021/09/29 05:44:42;;;;;;;4.20;3.17;;;15.10;99.90;;;;;;4994779;28;20575;-73
2021/09/29 05:47:10;;;;;;;3.83;2.80;;;15.10;99.90;;;;;;4994483;28;20214;-73
2021/09/29 05:49:38;;;;;;;4.90;2.90;;;15.10;99.90;;;;;;4994687;28;20212;-73
2021/09/29 05:52:07;;;;;;;6.45;3.00;;;15.20;99.90;;;;;;4994459;28;20231;-73
2021/09/29 05:54:34;;;;;;;4.43;2.95;;;15.20;99.90;;;;;;4994570;28;20582;-73
2021/09/29 05:57:01;;;;;;;3.05;2.72;;;15.20;99.90;;;;;;4994701;28;20297;-73
2021/09/29 05:59:28;;;;;;;3.85;2.90;;;15.20;99.90;;;;;;4994469;28;20737;-73
2021/09/29 06:01:56;;;;;;;3.25;2.50;;;15.20;99.90;;;;;;4994356;28;20626;-72
2021/09/29 06:04:23;;;;;;;3.22;2.92;;;15.20;99.90;;;;;;4994471;28;20203;-73
2021/09/29 06:06:50;;;;;;;7.28;4.65;;;15.20;99.90;;;;;;4994451;28;20361;-73
2021/09/29 06:09:17;;;;;;;4.50;4.10;;;15.20;99.90;;;;;;4994428;28;20240;-73
2021/09/29 06:11:43;;;;;;;3.30;2.58;;;15.20;99.90;;;;;;4994031;28;20234;-73
2021/09/29 06:14:10;;;;;;;3.55;2.60;;;15.10;99.90;;;;;;4994160;28;20295;-72
2021/09/29 06:16:43;;;;;;;2.65;2.35;;;15.10;99.90;;;;;;4994378;28;20207;-73
2021/09/29 06:19:14;;;;;;;3.53;2.70;;;15.20;99.90;;;;;;4994258;28;20212;-73
2021/09/29 06:21:41;;;;;;;2.50;2.30;;;15.20;99.90;;;;;;4993987;28;20666;-72
2021/09/29 06:24:08;;;;;;;3.40;2.70;;;15.20;99.90;;;;;;4994160;28;20290;-73
2021/09/29 06:26:35;;;;;;;3.60;2.63;;;15.40;99.90;;;;;;4994207;28;20208;-73
2021/09/29 06:29:02;;;;;;;2.42;2.22;;;15.40;99.90;;;;;;4994181;28;20212;-73
2021/09/29 06:31:29;;;;;;;2.60;2.40;;;15.40;99.90;;;;;;4993708;28;20234;-72
2021/09/29 06:33:55;;;;;;;2.70;2.42;;;15.50;99.90;;;;;;4994156;28;20218;-73
2021/09/29 06:36:24;;;;;;;2.97;2.17;;;15.50;99.90;;;;;;4995293;28;20318;-72
2021/09/29 06:38:50;;;;;;;6.15;2.67;;;15.60;99.90;;;;;;4998060;28;20210;-73
2021/09/29 06:41:17;;;;;;;3.22;2.70;;;15.60;99.90;;;;;;4997896;28;20734;-73
2021/09/29 06:43:44;;;;;;;5.55;3.10;;;15.60;99.90;;;;;;4998135;28;20250;-73
2021/09/29 06:46:12;;;;;;;2.83;2.58;;;15.60;99.90;;;;;;4998097;28;20234;-73
2021/09/29 06:48:41;;;;;;;3.00;2.75;;;15.50;99.90;;;;;;4997875;28;20237;-73
2021/09/29 06:51:08;;;;;;;4.25;2.67;;;15.40;99.90;;;;;;4997708;28;20250;-73
2021/09/29 06:53:37;;;;;;;5.18;2.95;;;15.40;99.90;;;;;;4997801;28;20207;-73
2021/09/29 06:56:06;;;;;;;6.80;5.40;;;15.40;99.90;;;;;;4997575;28;20784;-73
2021/09/29 06:58:33;;;;;;;4.45;3.20;;;15.40;99.90;;;;;;4997887;28;20207;-73
2021/09/29 07:01:00;;;;;;;4.95;2.75;;;15.40;99.90;;;;;;4997646;28;20217;-73
2021/09/29 07:03:27;;;;;;;4.03;2.50;;;15.40;99.90;;;;;;4997731;28;20211;-73
2021/09/29 07:05:55;;;;;;;3.05;2.40;;;15.30;99.90;;;;;;4998251;28;20757;-73
2021/09/29 07:08:22;;;;;;;3.00;2.70;;;15.40;99.90;;;;;;4997669;28;20214;-72
2021/09/29 07:10:51;;;;;;;3.85;2.72;;;15.40;99.90;;;;;;4997585;28;20208;-73
2021/09/29 07:13:17;;;;;;;2.53;2.33;;;15.30;99.90;;;;;;4997318;28;20227;-73
2021/09/29 07:15:44;;;;;;;2.85;2.65;;;15.40;99.90;;;;;;4997505;28;20238;-73
2021/09/29 07:18:12;;;;;;;3.47;2.30;;;15.40;99.90;;;;;;4997452;28;20307;-73
2021/09/29 07:20:40;;;;;;;4.00;2.22;;;15.40;99.90;;;;;;4997532;28;20281;-73
2021/09/29 07:23:07;;;;;;;3.17;2.50;;;15.50;99.90;;;;;;4997171;28;20654;-73
2021/09/29 07:25:35;;;;;;;3.47;1.80;;;15.50;99.90;;;;;;4997335;28;20231;-73
2021/09/29 07:28:04;;;;;;;2.63;2.25;;;15.50;99.90;;;;;;4997911;28;20247;-73
2021/09/29 07:30:31;;;;;;;2.58;2.00;;;15.50;99.90;;;;;;4997324;28;20296;-73
2021/09/29 07:33:03;;;;;;;2.45;2.17;;;15.60;99.90;;;;;;4996842;28;20222;-73
2021/09/29 07:35:30;;;;;;;4.65;2.22;;;15.60;99.90;;;;;;4997117;28;20227;-72
2021/09/29 07:37:56;;;;;;;7.50;4.97;;;15.60;99.90;;;;;;4997253;28;20214;-73
2021/09/29 07:40:23;;;;;;;8.88;5.72;;;15.70;99.90;;;;;;4997303;28;20204;-73
2021/09/29 07:42:50;;;;;;;2.60;2.40;;;15.80;99.90;;;;;;4996906;28;20299;-73
2021/09/29 07:45:18;;;;;;;2.40;2.10;;;15.80;99.90;;;;;;4996888;28;20737;-73
2021/09/29 07:47:45;;;;;;;2.35;2.15;;;15.80;99.90;;;;;;4979437;28;20218;-75
2021/09/29 07:50:15;;;;;;;1.70;1.60;;;15.90;99.90;;;;;;4979818;28;20220;-74
2021/09/29 07:52:43;;;;;;;1.95;1.75;;;16.10;99.90;;;;;;4977389;28;20701;-75
2021/09/29 07:55:10;;;;;;;3.83;1.73;;;16.10;99.90;;;;;;4976907;28;20228;-76
2021/09/29 07:57:37;;;;;;;1.90;1.80;;;16.20;99.90;;;;;;4976564;28;20583;-75
2021/09/29 08:00:05;;;;;;;1.85;1.70;;;16.20;99.90;;;;;;4976330;28;20636;-76
2021/09/29 08:02:33;;;;;;;1.90;1.60;;;16.20;99.90;;;;;;4976144;28;20209;-76
2021/09/29 08:05:02;;;;;;;1.77;1.65;;;16.30;99.90;;;;;;4976415;28;20312;-76
2021/09/29 08:07:29;;;;;;;2.40;1.63;;;16.30;99.90;;;;;;4977276;28;20257;-76
2021/09/29 08:09:56;;;;;;;2.22;1.60;;;16.30;99.90;;;;;;4976261;28;20214;-76
2021/09/29 08:12:23;;;;;;;1.48;1.38;;;16.30;99.90;;;;;;4976471;28;20315;-76
2021/09/29 08:14:50;;;;;;;1.50;1.40;;;16.30;99.90;;;;;;4976323;28;20232;-76
2021/09/29 08:17:17;;;;;;;2.78;1.35;;;16.40;99.90;;;;;;4976543;28;20214;-76
2021/09/29 08:19:45;;;;;;;1.50;1.27;;;16.40;99.90;;;;;;4976209;28;20238;-76
2021/09/29 08:22:13;;;;;;;1.67;1.45;;;16.40;99.90;;;;;;4975991;28;20296;-76
2021/09/29 08:24:45;;;;;;;2.20;1.40;;;16.40;99.90;;;;;;4975945;28;20236;-73
2021/09/29 08:27:17;;;;;;;1.60;1.50;;;16.40;99.90;;;;;;4976181;28;20213;-73
2021/09/29 08:30:05;;;;;;;4.95;3.70;;;16.40;99.90;;;;;;4975355;28;20272;-77
2021/09/29 08:32:38;;;;;;;2.58;2.35;;;16.40;99.90;;;;;;4981114;28;20233;-79
2021/09/29 08:35:12;;;;;;;3.30;2.13;;;16.40;99.90;;;;;;4982719;28;20236;-79
2021/09/29 08:37:48;;;;;;;1.60;1.42;;;16.40;99.90;;;;;;4980911;28;20197;-78
2021/09/29 08:40:19;;;;;;;2.03;1.10;;;16.50;99.90;;;;;;4981007;28;20213;-78
2021/09/29 08:43:13;;;;;;;1.90;1.45;;;16.50;99.90;;;;;;4980487;28;20267;-78
2021/09/29 08:45:49;;;;;;;2.92;1.50;;;16.50;99.90;;;;;;4979343;28;20309;-78
2021/09/29 08:48:24;;;;;;;1.23;1.23;;;16.60;99.90;;;;;;4980012;28;20223;-78
2021/09/29 08:51:26;;;;;;;1.83;1.08;;;16.70;99.90;;;;;;4979014;28;20209;-79
2021/09/29 08:54:01;;;;;;;1.60;1.50;;;16.70;99.90;;;;;;4979590;28;20252;-78
2021/09/29 09:16:16;;;;;;;2.25;1.20;;;17.20;99.90;;;;;;4978492;28;20264;-78
2021/09/29 09:18:49;;;;;;;1.75;1.30;;;17.40;99.90;;;;;;4977923;28;20206;-78
2021/09/29 09:21:18;;;;;;;1.50;1.40;;;17.50;99.90;;;;;;4978097;28;20209;-78
2021/09/29 09:23:47;;;;;;;1.77;1.20;;;17.70;99.90;;;;;;4978411;28;20613;-79
2021/09/29 09:26:16;;;;;;;1.25;0.90;;;17.80;99.90;;;;;;4978584;28;20235;-78
2021/09/29 09:28:44;;;;;;;1.30;1.20;;;17.90;99.90;;;;;;4978474;28;20206;-78
2021/09/29 09:31:13;;;;;;;1.23;1.15;;;17.90;99.90;;;;;;4977538;28;20241;-78
2021/09/29 09:33:52;;;;;;;1.85;1.30;;;17.90;99.90;;;;;;4977911;28;20317;-78
2021/09/29 09:36:34;;;;;;;1.60;1.15;;;18.00;99.90;;;;;;4978160;28;20313;-79
2021/09/29 09:39:06;;;;;;;1.30;1.20;;;18.10;99.90;;;;;;4978465;28;20202;-78
2021/09/29 09:41:33;;;;;;;1.30;1.20;;;18.20;99.90;;;;;;4977702;28;20206;-78
2021/09/29 09:44:01;;;;;;;1.33;1.23;;;18.30;99.90;;;;;;4977892;28;20293;-79
2021/09/29 09:46:29;;;;;;;1.10;1.10;;;18.50;99.90;;;;;;4979178;28;20317;-78
2021/09/29 09:49:00;;;;;;;2.27;1.30;;;18.60;99.80;;;;;;4977525;28;20296;-78
2021/09/29 09:51:27;;;;;;;1.47;1.10;;;18.60;99.90;;;;;;4977574;28;20508;-78
2021/09/29 09:53:55;;;;;;;1.20;1.10;;;18.60;99.50;;;;;;4978141;28;20573;-78
2021/09/29 09:56:26;;;;;;;1.13;1.03;;;18.70;99.60;;;;;;4978123;28;20251;-78
2021/09/29 09:58:54;;;;;;;1.70;1.33;;;18.70;99.70;;;;;;4977686;28;20473;-78
2021/09/29 10:01:23;;;;;;;1.37;1.30;;;18.70;99.60;;;;;;4978135;28;20446;-78
2021/09/29 10:03:51;;;;;;;1.17;1.10;;;18.70;98.70;;;;;;4978042;28;20446;-78
2021/09/29 10:06:20;;;;;;;1.13;1.13;;;18.60;99.20;;;;;;4978390;28;20504;-78
2021/09/29 10:08:53;;;;;;;1.40;1.30;;;18.50;99.40;;;;;;4978991;28;20504;-78
2021/09/29 10:11:23;;;;;;;1.30;1.20;;;18.60;99.90;;;;;;4978324;28;20509;-78
2021/09/29 10:14:15;;;;;;;1.40;1.30;;;18.70;99.90;;;;;;4979042;28;20517;-78
2021/09/29 10:27:57;;;;;;;2.30;1.10;;;19.20;98.10;;;;;;4978448;28;20860;-79
2021/09/29 10:30:28;;;;;;;1.47;1.03;;;19.30;96.50;;;;;;4978176;28;20448;-79
2021/09/29 10:32:59;;;;;;;1.60;0.73;;;19.30;95.90;;;;;;4977353;28;20525;-79
2021/09/29 10:35:41;;;;;;;1.10;1.07;;;19.30;95.40;;;;;;4976989;28;20469;-78
2021/09/29 10:41:04;;;;;;;1.03;1.00;;;19.10;94.90;;;;;;4977522;28;20426;-79
2021/09/29 10:43:39;;;;;;;1.00;1.00;;;19.10;95.20;;;;;;4976802;28;20446;-78
2021/09/29 10:46:24;;;;;;;1.80;0.95;;;19.00;95.70;;;;;;4977745;28;20539;-78
2021/09/29 10:49:18;;;;;;;1.90;0.90;;;18.90;95.40;;;;;;4977899;28;20567;-78
2021/09/29 10:52:20;;;;;;;0.83;0.70;;;18.90;96.30;;;;;;4977028;28;20865;-78
2021/09/29 11:06:41;;;;;;;1.30;1.00;;;18.90;95.80;;;;;;4977125;28;20445;-78
2021/09/29 11:09:34;;;;;;;1.90;1.03;;;19.00;95.70;;;;;;4977227;28;20206;-79
2021/09/29 11:27:15;;;;;;;1.00;1.00;;;19.10;95.30;;;;;;4976716;28;20485;-78
2021/09/29 11:29:23;;;;;;;0.80;0.80;;;20.40;93.50;;;;;;4980260;28;20458;-78
2021/09/29 11:31:54;;;;;;;1.20;1.00;;;20.60;94.00;;;;;;4979850;28;20505;-78
2021/09/29 11:34:23;;;;;;;1.00;0.70;;;20.70;94.10;;;;;;4982248;28;20832;-78
2021/09/29 11:37:00;;;;;;;0.70;0.70;;;20.70;92.40;;;;;;4981139;28;20492;-78
2021/09/29 11:39:52;;;;;;;2.90;1.70;;;20.80;92.70;;;;;;4981574;28;20959;-79
2021/09/29 12:08:01;;;;;;;0.70;0.70;;;21.50;85.60;;;;;;4980640;28;20461;-78
2021/09/29 12:10:30;;;;;;;0.77;0.60;;;21.30;86.90;;;;;;4980847;28;20453;-79
2021/09/29 12:13:00;;;;;;;1.50;1.17;;;21.10;85.80;;;;;;4980167;28;20484;-79
2021/09/29 12:15:27;;;;;;;0.90;0.90;;;21.00;87.50;;;;;;4980832;28;20516;-79
2021/09/29 12:17:54;;;;;;;1.03;0.63;;;21.00;87.00;;;;;;4981121;28;20445;-79
2021/09/29 12:20:23;;;;;;;0.70;0.60;;;20.90;86.20;;;;;;4980798;28;20468;-78
2021/09/29 12:22:54;;;;;;;1.83;0.80;;;21.00;86.70;;;;;;4978839;28;20449;-79
2021/09/29 12:25:27;;;;;;;2.50;0.90;;;20.90;86.30;;;;;;4981192;28;20481;-79
2021/09/29 12:28:16;;;;;;;0.50;0.50;;;20.90;86.90;;;;;;4981111;28;20448;-79
2021/09/29 12:30:47;;;;;;;0.53;0.53;;;21.00;86.70;;;;;;4981967;28;20445;-79
2021/09/29 12:33:18;;;;;;;0.80;0.57;;;21.10;85.40;;;;;;4981153;28;20521;-79
2021/09/29 12:35:50;;;;;;;1.33;0.87;;;21.00;85.30;;;;;;4981175;28;20823;-79
2021/09/29 12:38:17;;;;;;;1.07;0.57;;;20.90;86.20;;;;;;4981265;28;20481;-79
2021/09/29 12:40:45;;;;;;;0.70;0.70;;;20.90;87.10;;;;;;4980300;28;20520;-79
2021/09/29 12:43:16;;;;;;;0.80;0.80;;;20.80;85.20;;;;;;4980597;28;20468;-79
2021/09/29 12:45:46;;;;;;;0.60;0.60;;;20.60;85.00;;;;;;4981577;28;20540;-78
2021/09/29 12:48:14;;;;;;;0.60;0.60;;;20.50;86.70;;;;;;4980735;28;20923;-79
2021/09/29 12:50:47;;;;;;;0.50;0.50;;;20.40;86.00;;;;;;4979588;28;20544;-79
2021/09/29 12:53:19;;;;;;;0.70;0.70;;;20.30;87.30;;;;;;4979622;28;20886;-79
2021/09/29 12:55:50;;;;;;;0.60;0.60;;;20.50;87.30;;;;;;4979832;28;20475;-79
2021/09/29 12:58:19;;;;;;;0.77;0.77;;;20.50;86.40;;;;;;4980822;28;20438;-79
2021/09/29 13:00:45;;;;;;;2.20;0.70;;;20.40;86.70;;;;;;4979952;28;20544;-79
2021/09/29 13:03:13;;;;;;;0.50;0.50;;;20.50;87.30;;;;;;4980137;28;21014;-79
2021/09/29 13:05:41;;;;;;;0.60;0.60;;;20.40;87.90;;;;;;4980060;28;20483;-79
2021/09/29 13:08:08;;;;;;;1.47;0.53;;;20.40;88.30;;;;;;4979629;28;20506;-79
2021/09/29 13:10:34;;;;;;;1.83;0.70;;;20.30;89.20;;;;;;4979643;28;20802;-79
2021/09/29 13:13:01;;;;;;;0.93;0.73;;;20.30;89.60;;;;;;4979472;28;20520;-79
2021/09/29 13:15:30;;;;;;;0.70;0.70;;;20.30;89.10;;;;;;4981679;28;20495;-79
2021/09/29 13:17:58;;;;;;;0.87;0.70;;;20.40;88.90;;;;;;4980870;28;20505;-79
2021/09/29 13:20:26;;;;;;;0.50;0.50;;;20.40;89.60;;;;;;4981472;28;20452;-79
2021/09/29 13:22:58;;;;;;;0.63;0.63;;;20.60;90.70;;;;;;4979370;28;20449;-79
2021/09/29 13:36:36;;;;;;;1.03;0.80;;;20.20;90.20;;;;;;4978744;28;20446;-78
2021/09/29 13:39:06;;;;;;;1.47;0.70;;;19.90;90.90;;;;;;4979657;28;20844;-78
2021/09/29 13:41:34;;;;;;;0.87;0.60;;;19.70;92.90;;;;;;4979916;28;20459;-79
2021/09/29 13:44:00;;;;;;;1.00;0.60;;;19.40;94.50;;;;;;4978588;28;20868;-79
2021/09/29 13:46:29;;;;;;;1.13;0.68;;;19.20;97.30;;;;;;4977966;28;20549;-79
2021/09/29 13:48:57;;;;;;;0.80;0.80;;;18.90;99.70;;;;;;4978572;28;20297;-79
2021/09/29 13:51:26;;;;;;;1.30;0.95;;;18.60;99.90;;;;;;4978020;28;20202;-78
2021/09/29 13:53:54;;;;;;;1.13;0.90;;;18.30;99.90;;;;;;4977932;28;20221;-78
2021/09/29 13:56:25;;;;;;;2.65;1.30;;;18.00;99.90;;;;;;4977339;28;20226;-78
2021/09/29 13:59:06;;;;;;;1.48;1.00;;;17.90;99.90;;;;;;4977435;28;20209;-78
2021/09/29 14:29:20;;;;;;;0.50;0.50;;;17.60;99.90;;;;;;4956477;28;20202;-78
2021/09/29 14:31:51;;;;;;;2.55;1.48;;;17.40;99.90;;;;;;4976234;28;20772;-77
2021/09/29 14:34:20;;;;;;;2.15;0.80;;;17.20;99.90;;;;;;4976566;28;20234;-78
2021/09/29 14:36:47;;;;;;;0.82;0.60;;;17.00;99.90;;;;;;4976914;28;20224;-79
2021/09/29 14:39:14;;;;;;;1.38;0.47;;;16.80;99.90;;;;;;4976115;28;20216;-78
2021/09/29 14:41:41;;;;;;;1.35;0.70;;;16.70;99.90;;;;;;4977124;28;20216;-78
2021/09/29 14:44:08;;;;;;;0.40;0.40;;;16.50;99.90;;;;;;4976468;28;20679;-78
2021/09/29 14:46:35;;;;;;;0.50;0.50;;;16.20;99.90;;;;;;4977157;28;20296;-79
2021/09/29 14:49:02;;;;;;;0.80;0.50;;;16.10;99.90;;;;;;4976957;28;20237;-79
2021/09/29 14:51:31;;;;;;;0.43;0.43;;;16.00;99.90;;;;;;4976677;28;20253;-78
2021/09/29 14:53:59;;;;;;;0.60;0.50;;;15.90;99.90;;;;;;4976936;28;20361;-79
2021/09/29 14:56:27;;;;;;;1.45;0.55;;;15.80;99.90;;;;;;4976821;28;20573;-79
2021/09/29 14:58:54;;;;;;;0.47;0.47;;;15.80;99.90;;;;;;4980014;28;20205;-79
2021/09/29 15:01:22;;;;;;;0.60;0.60;;;15.80;99.90;;;;;;4979556;28;20212;-78
2021/09/29 15:03:49;;;;;;;0.50;0.50;;;15.70;99.90;;;;;;4980356;28;20212;-79